createdAt,value
2024-05-09T00:00:47.657Z,8.32
2024-05-09T00:03:16.603Z,8.37
2024-05-09T00:05:45.217Z,8.36
2024-05-09T00:08:14.075Z,8.36
2024-05-09T00:10:43.315Z,8.22
2024-05-09T00:13:12.063Z,8.02
2024-05-09T00:15:40.614Z,7.88
2024-05-09T00:18:09.538Z,7.85
2024-05-09T00:20:40.725Z,8.00
2024-05-09T00:23:16.080Z,7.69
2024-05-09T00:25:44.875Z,7.68
2024-05-09T00:28:14.024Z,7.67
2024-05-09T00:30:42.604Z,7.56
2024-05-09T00:33:11.889Z,7.48
2024-05-09T00:35:41.980Z,7.44
2024-05-09T00:38:11.733Z,7.50
2024-05-09T00:40:43.266Z,7.44
2024-05-09T00:43:14.482Z,7.36
2024-05-09T00:45:44.674Z,7.38
2024-05-09T00:48:17.485Z,7.36
2024-05-09T00:50:48.842Z,7.32
2024-05-09T00:53:19.481Z,7.29
2024-05-09T00:55:48.791Z,7.26
2024-05-09T00:58:22.454Z,7.23
2024-05-09T01:00:55.025Z,7.18
2024-05-09T01:03:23.942Z,7.16
2024-05-09T01:05:53.191Z,7.13
2024-05-09T01:08:23.432Z,7.09
2024-05-09T01:10:52.688Z,7.05
2024-05-09T01:13:21.818Z,7.02
2024-05-09T01:15:53.266Z,6.99
2024-05-09T01:18:21.943Z,6.97
2024-05-09T01:20:50.556Z,6.92
2024-05-09T01:23:18.886Z,6.91
2024-05-09T01:25:47.563Z,6.86
2024-05-09T01:28:16.603Z,6.83
2024-05-09T01:30:45.482Z,6.81
2024-05-09T01:33:14.335Z,6.82
2024-05-09T01:35:43.433Z,6.75
2024-05-09T01:38:17.727Z,6.84
2024-05-09T01:40:46.488Z,7.06
2024-05-09T01:43:15.481Z,7.15
2024-05-09T01:45:44.010Z,7.19
2024-05-09T01:48:12.315Z,7.26
2024-05-09T01:50:42.727Z,7.27
2024-05-09T01:53:13.737Z,7.30
2024-05-09T01:55:42.832Z,7.18
2024-05-09T01:58:11.688Z,7.18
2024-05-09T02:00:42.600Z,7.07
2024-05-09T02:03:16.212Z,7.00
2024-05-09T02:05:48.002Z,6.95
2024-05-09T02:12:03.748Z,6.81
2024-05-09T02:14:32.359Z,6.80
2024-05-09T02:17:00.680Z,6.80
2024-05-09T02:19:49.295Z,6.81
2024-05-09T02:22:17.711Z,6.80
2024-05-09T02:24:45.948Z,6.81
2024-05-09T02:27:15.021Z,6.83
2024-05-09T02:29:45.871Z,6.87
2024-05-09T02:32:17.087Z,6.89
2024-05-09T02:34:45.549Z,6.88
2024-05-09T02:37:13.922Z,6.90
2024-05-09T02:39:42.556Z,6.93
2024-05-09T02:42:10.747Z,6.99
2024-05-09T02:44:39.106Z,7.02
2024-05-09T02:47:07.416Z,7.06
2024-05-09T02:49:35.731Z,7.08
2024-05-09T02:52:03.691Z,7.13
2024-05-09T02:54:32.600Z,7.20
2024-05-09T02:57:01.063Z,7.29
2024-05-09T02:59:29.354Z,7.30
2024-05-09T03:01:57.848Z,7.35
2024-05-09T03:04:26.362Z,7.37
2024-05-09T03:06:54.900Z,7.44
2024-05-09T03:09:25.021Z,7.50
2024-05-09T03:11:53.520Z,7.53
2024-05-09T03:14:22.317Z,7.59
2024-05-09T03:16:50.676Z,7.59
2024-05-09T03:19:19.088Z,7.78
2024-05-09T03:21:46.856Z,8.05
2024-05-09T03:24:15.007Z,8.23
2024-05-09T03:26:42.962Z,8.40
2024-05-09T03:29:11.255Z,8.51
2024-05-09T03:31:40.224Z,8.58
2024-05-09T03:34:09.202Z,8.81
2024-05-09T03:36:41.700Z,8.93
2024-05-09T03:39:12.814Z,9.03
2024-05-09T03:41:41.142Z,9.14
2024-05-09T03:44:09.375Z,9.21
2024-05-09T03:46:40.785Z,9.24
2024-05-09T03:49:08.998Z,9.07
2024-05-09T03:51:37.249Z,8.94
2024-05-09T03:54:05.427Z,9.01
2024-05-09T03:56:35.261Z,8.98
2024-05-09T03:59:03.611Z,9.11
2024-05-09T04:01:31.681Z,9.25
2024-05-09T04:03:59.918Z,9.42
2024-05-09T04:06:28.269Z,9.46
2024-05-09T04:08:56.607Z,9.44
2024-05-09T04:11:24.907Z,9.54
2024-05-09T04:13:53.361Z,9.62
2024-05-09T04:16:21.391Z,9.66
2024-05-09T04:18:49.842Z,9.76
2024-05-09T04:21:19.266Z,9.75
2024-05-09T04:23:47.515Z,9.68
2024-05-09T04:26:15.427Z,9.64
2024-05-09T04:28:43.841Z,9.72
2024-05-09T04:31:12.357Z,9.76
2024-05-09T04:33:41.173Z,9.86
2024-05-09T04:36:09.602Z,9.97
2024-05-09T04:38:38.006Z,9.54
2024-05-09T04:41:06.271Z,9.98
2024-05-09T04:43:35.730Z,9.99
2024-05-09T04:46:04.526Z,9.97
2024-05-09T04:48:33.030Z,9.94
2024-05-09T04:51:03.587Z,9.88
2024-05-09T04:53:32.413Z,9.93
2024-05-09T04:56:00.783Z,10.06
2024-05-09T04:58:29.184Z,10.21
2024-05-09T05:00:57.564Z,10.33
2024-05-09T05:03:26.143Z,10.40
2024-05-09T05:05:54.930Z,10.48
2024-05-09T05:08:23.405Z,10.58
2024-05-09T05:10:51.778Z,10.66
2024-05-09T05:13:21.494Z,10.71
2024-05-09T05:15:53.838Z,10.72
2024-05-09T05:18:23.649Z,10.79
2024-05-09T05:20:52.242Z,10.90
2024-05-09T05:23:22.151Z,10.96
2024-05-09T05:25:53.381Z,10.81
2024-05-09T05:28:22.820Z,10.99
2024-05-09T05:30:51.217Z,11.16
2024-05-09T05:33:20.039Z,11.22
2024-05-09T05:35:48.624Z,11.29
2024-05-09T05:38:16.963Z,11.35
2024-05-09T05:40:45.423Z,11.41
2024-05-09T05:43:20.785Z,11.49
2024-05-09T05:45:49.098Z,11.46
2024-05-09T05:48:18.190Z,11.52
2024-05-09T05:50:46.963Z,11.64
2024-05-09T05:53:15.506Z,11.77
2024-05-09T05:55:43.975Z,11.88
2024-05-09T05:58:13.607Z,11.84
2024-05-09T06:00:43.006Z,11.97
2024-05-09T06:03:14.455Z,12.04
2024-05-09T06:05:47.196Z,12.10
2024-05-09T06:08:16.293Z,12.11
2024-05-09T06:10:44.992Z,12.18
2024-05-09T06:13:14.604Z,12.25
2024-05-09T06:15:44.025Z,12.27
2024-05-09T06:18:13.266Z,12.36
2024-05-09T06:20:43.982Z,12.40
2024-05-09T06:23:13.441Z,12.51
2024-05-09T06:25:42.665Z,12.56
2024-05-09T06:28:12.015Z,12.44
2024-05-09T06:30:42.633Z,12.39
2024-05-09T06:33:15.225Z,12.35
2024-05-09T06:35:45.332Z,12.39
2024-05-09T06:38:13.736Z,12.45
2024-05-09T06:40:44.046Z,12.45
2024-05-09T06:43:18.549Z,12.47
2024-05-09T06:45:49.439Z,12.54
2024-05-09T06:48:22.197Z,12.61
2024-05-09T06:50:51.784Z,12.61
2024-05-09T06:53:26.578Z,12.65
2024-05-09T06:55:55.205Z,12.75
2024-05-09T06:58:23.606Z,12.85
2024-05-09T07:00:52.111Z,12.92
2024-05-09T07:03:20.440Z,13.03
2024-05-09T07:05:49.872Z,13.11
2024-05-09T07:08:19.520Z,13.22
2024-05-09T07:10:48.351Z,13.32
2024-05-09T07:13:16.781Z,13.44
2024-05-09T07:15:45.473Z,13.41
2024-05-09T07:18:17.820Z,13.59
2024-05-09T07:20:48.531Z,13.70
2024-05-09T07:23:17.603Z,13.75
2024-05-09T07:25:46.403Z,13.97
2024-05-09T07:28:19.738Z,14.01
2024-05-09T07:30:48.708Z,14.01
2024-05-09T07:33:23.022Z,14.05
2024-05-09T07:35:53.271Z,14.07
2024-05-09T07:38:22.220Z,14.28
2024-05-09T07:40:50.924Z,14.25
2024-05-09T07:43:19.375Z,14.37
2024-05-09T07:45:53.158Z,14.52
2024-05-09T07:52:39.316Z,14.55
2024-05-09T07:53:49.456Z,14.81
2024-05-09T07:56:23.245Z,14.86
2024-05-09T07:58:54.504Z,14.81
2024-05-09T08:01:26.236Z,14.89
2024-05-09T08:03:55.920Z,15.00
2024-05-09T08:06:24.855Z,15.18
2024-05-09T08:08:53.371Z,15.25
2024-05-09T08:11:21.905Z,15.45
2024-05-09T08:13:53.290Z,15.64
2024-05-09T08:16:21.918Z,15.74
2024-05-09T08:18:50.358Z,15.89
2024-05-09T08:21:19.796Z,15.97
2024-05-09T08:23:48.227Z,16.06
2024-05-09T08:26:16.751Z,16.06
2024-05-09T08:28:45.188Z,16.21
2024-05-09T08:31:16.888Z,16.21
2024-05-09T08:33:47.789Z,16.29
2024-05-09T08:36:17.095Z,16.44
2024-05-09T08:38:45.565Z,16.73
2024-05-09T08:41:16.326Z,17.02
2024-05-09T08:43:45.798Z,17.32
2024-05-09T08:46:14.931Z,17.39
2024-05-09T08:48:44.879Z,17.27
2024-05-09T08:51:15.376Z,17.36
2024-05-09T08:53:43.858Z,17.51
2024-05-09T08:56:12.895Z,17.41
2024-05-09T08:58:43.738Z,17.40
2024-05-09T09:01:13.348Z,17.48
2024-05-09T09:03:43.643Z,17.65
2024-05-09T09:06:15.593Z,18.00
2024-05-09T09:08:46.270Z,18.20
2024-05-09T09:11:14.844Z,18.29
2024-05-09T09:13:43.183Z,18.71
2024-05-09T09:16:13.263Z,19.01
2024-05-09T09:18:46.742Z,19.36
2024-05-09T09:21:15.554Z,19.79
2024-05-09T09:23:44.630Z,20.22
2024-05-09T09:26:17.186Z,20.23
2024-05-09T09:28:45.875Z,20.14
2024-05-09T09:31:19.075Z,20.44
2024-05-09T09:33:47.668Z,20.45
2024-05-09T09:36:16.235Z,20.46
2024-05-09T09:38:47.004Z,20.61
2024-05-09T09:41:18.318Z,20.88
2024-05-09T09:43:46.698Z,20.65
2024-05-09T09:46:15.829Z,20.21
2024-05-09T09:48:45.642Z,20.47
2024-05-09T09:51:16.239Z,21.03
2024-05-09T09:53:45.400Z,21.43
2024-05-09T09:56:18.402Z,21.78
2024-05-09T09:58:49.517Z,21.66
2024-05-09T10:01:19.111Z,21.68
2024-05-09T10:03:47.903Z,21.92
2024-05-09T10:06:16.720Z,22.20
2024-05-09T10:08:47.965Z,22.24
2024-05-09T10:11:23.316Z,22.28
2024-05-09T10:13:54.157Z,22.21
2024-05-09T10:16:23.365Z,22.45
2024-05-09T10:18:52.005Z,22.74
2024-05-09T10:21:24.584Z,22.87
2024-05-09T10:24:00.381Z,22.93
2024-05-09T10:26:37.314Z,23.07
2024-05-09T10:29:16.419Z,23.25
2024-05-09T10:31:46.471Z,23.45
2024-05-09T10:34:23.026Z,23.42
2024-05-09T10:36:55.600Z,23.37
2024-05-09T10:39:26.492Z,23.46
2024-05-09T10:41:55.318Z,23.33
2024-05-09T10:44:23.585Z,23.45
2024-05-09T10:46:54.081Z,23.86
2024-05-09T10:49:22.700Z,24.16
2024-05-09T10:51:52.254Z,24.39
2024-05-09T10:54:20.346Z,24.30
2024-05-09T10:56:58.062Z,24.13
2024-05-09T10:59:26.449Z,24.36
2024-05-09T11:01:54.950Z,24.74
2024-05-09T11:04:23.336Z,24.94
2024-05-09T11:06:52.016Z,25.26
2024-05-09T11:09:20.836Z,25.50
2024-05-09T11:11:49.633Z,25.70
2024-05-09T11:14:18.208Z,25.67
2024-05-09T11:16:46.626Z,25.89
2024-05-09T11:19:15.367Z,25.68
2024-05-09T11:21:43.642Z,24.89
2024-05-09T11:24:12.960Z,24.80
2024-05-09T11:26:41.312Z,25.03
2024-05-09T11:29:09.433Z,25.63
2024-05-09T11:31:49.885Z,26.37
2024-05-09T11:34:18.430Z,26.83
2024-05-09T11:36:47.377Z,27.33
2024-05-09T11:39:15.957Z,27.86
2024-05-09T11:41:44.354Z,28.27
2024-05-09T11:44:13.587Z,28.70
2024-05-09T11:46:44.199Z,29.17
2024-05-09T11:49:12.960Z,26.94
2024-05-09T11:51:41.470Z,26.08
2024-05-09T11:54:09.991Z,26.20
2024-05-09T11:56:38.539Z,27.87
2024-05-09T11:59:06.761Z,28.97
2024-05-09T12:01:35.251Z,29.93
2024-05-09T12:04:04.601Z,30.68
2024-05-09T12:06:33.275Z,31.45
2024-05-09T12:09:27.184Z,32.19
2024-05-09T12:11:55.601Z,32.66
2024-05-09T12:14:23.992Z,32.67
2024-05-09T12:16:52.557Z,32.04
2024-05-09T12:19:21.036Z,31.61
2024-05-09T12:21:49.470Z,31.34
2024-05-09T12:24:18.699Z,30.06
2024-05-09T12:26:48.270Z,31.62
2024-05-09T12:29:19.265Z,31.76
2024-05-09T12:31:47.812Z,32.12
2024-05-09T12:34:16.712Z,31.28
2024-05-09T12:36:45.138Z,29.73
2024-05-09T12:39:13.291Z,28.87
2024-05-09T12:41:41.690Z,28.14
2024-05-09T12:44:10.039Z,27.40
2024-05-09T12:46:38.403Z,26.40
2024-05-09T12:49:06.990Z,26.15
2024-05-09T12:51:35.833Z,25.91
2024-05-09T12:54:04.187Z,25.67
2024-05-09T12:56:33.893Z,25.48
2024-05-09T12:59:02.233Z,25.03
2024-05-09T13:01:30.665Z,24.69
2024-05-09T13:03:59.497Z,24.26
2024-05-09T13:06:28.011Z,23.48
2024-05-09T13:09:00.812Z,22.94
2024-05-09T13:11:29.215Z,22.82
2024-05-09T13:13:57.562Z,22.72
2024-05-09T13:16:26.130Z,22.59
2024-05-09T13:18:54.953Z,22.45
2024-05-09T13:21:23.472Z,22.18
2024-05-09T13:23:51.852Z,21.76
2024-05-09T13:26:20.592Z,21.40
2024-05-09T13:28:49.157Z,21.15
2024-05-09T13:31:17.449Z,20.85
2024-05-09T13:33:46.090Z,20.72
2024-05-09T13:36:15.096Z,20.41
2024-05-09T13:38:43.425Z,19.53
2024-05-09T13:41:12.057Z,19.04
2024-05-09T13:43:40.288Z,18.46
2024-05-09T13:46:08.892Z,18.40
2024-05-09T13:48:37.697Z,18.19
2024-05-09T13:51:06.372Z,17.77
2024-05-09T13:53:34.606Z,17.78
2024-05-09T13:56:02.807Z,17.93
2024-05-09T13:58:31.243Z,17.96
2024-05-09T14:00:59.785Z,17.86
2024-05-09T14:03:30.529Z,17.73
2024-05-09T14:05:58.950Z,17.67
2024-05-09T14:08:27.639Z,17.79
2024-05-09T14:10:56.576Z,17.90
2024-05-09T14:13:24.941Z,18.76
2024-05-09T14:15:53.495Z,19.91
2024-05-09T14:18:22.252Z,21.25
2024-05-09T14:20:50.714Z,21.97
2024-05-09T14:23:19.303Z,22.21
2024-05-09T14:25:51.278Z,22.28
2024-05-09T14:28:23.225Z,22.05
2024-05-09T14:30:52.046Z,21.61
2024-05-09T14:33:25.705Z,21.33
2024-05-09T14:35:54.350Z,21.22
2024-05-09T14:38:22.962Z,21.19
2024-05-09T14:40:52.135Z,21.09
2024-05-09T14:43:21.203Z,21.76
2024-05-09T14:45:50.005Z,21.92
2024-05-09T14:48:20.407Z,21.54
2024-05-09T14:50:49.165Z,21.37
2024-05-09T14:53:17.768Z,21.50
2024-05-09T14:55:47.006Z,21.52
2024-05-09T14:58:16.003Z,21.72
2024-05-09T15:00:50.309Z,21.75
2024-05-09T15:03:21.541Z,21.78
2024-05-09T15:05:51.900Z,21.60
2024-05-09T15:08:20.758Z,21.52
2024-05-09T15:10:52.277Z,21.67
2024-05-09T15:13:21.951Z,21.80
2024-05-09T15:15:53.478Z,21.98
2024-05-09T15:18:22.020Z,21.81
2024-05-09T15:20:50.937Z,21.63
2024-05-09T15:23:19.494Z,21.62
2024-05-09T15:25:48.198Z,20.95
2024-05-09T15:28:16.816Z,20.89
2024-05-09T15:30:46.590Z,20.58
2024-05-09T15:33:16.020Z,20.49
2024-05-09T15:35:47.708Z,20.22
2024-05-09T15:38:18.709Z,20.18
2024-05-09T15:40:47.784Z,19.85
2024-05-09T15:43:16.134Z,19.40
2024-05-09T15:45:44.562Z,18.89
2024-05-09T15:48:13.417Z,18.62
2024-05-09T15:50:42.820Z,18.24
2024-05-09T15:53:13.654Z,18.06
2024-05-09T15:55:43.417Z,17.87
2024-05-09T15:58:12.228Z,17.62
2024-05-09T16:00:44.282Z,17.63
2024-05-09T16:03:15.124Z,17.55
2024-05-09T16:05:46.818Z,17.63
2024-05-09T16:08:16.911Z,17.55
2024-05-09T16:10:46.433Z,17.04
2024-05-09T16:13:18.280Z,16.79
2024-05-09T16:15:46.860Z,16.45
2024-05-09T16:18:15.837Z,16.31
2024-05-09T16:20:46.315Z,16.12
2024-05-09T16:23:16.728Z,15.95
2024-05-09T16:25:48.486Z,15.83
2024-05-09T16:28:19.814Z,15.65
2024-05-09T16:30:49.097Z,15.55
2024-05-09T16:33:24.116Z,15.57
2024-05-09T16:35:53.244Z,15.47
2024-05-09T16:38:21.553Z,15.18
2024-05-09T16:40:50.245Z,14.68
2024-05-09T16:43:18.956Z,14.80
2024-05-09T16:45:47.456Z,14.58
2024-05-09T16:48:15.886Z,14.54
2024-05-09T16:50:44.564Z,14.43
2024-05-09T16:53:14.077Z,14.37
2024-05-09T16:55:42.614Z,14.35
2024-05-09T16:58:12.743Z,14.35
2024-05-09T17:00:44.623Z,14.29
2024-05-09T17:03:15.816Z,14.23
2024-05-09T17:05:48.751Z,14.19
2024-05-09T17:08:18.788Z,14.21
2024-05-09T17:10:50.510Z,14.23
2024-05-09T17:13:19.702Z,14.14
2024-05-09T17:15:49.043Z,14.18
2024-05-09T17:18:17.876Z,14.03
2024-05-09T17:20:45.985Z,14.08
2024-05-09T17:23:14.676Z,14.05
2024-05-09T17:25:43.952Z,14.09
2024-05-09T17:28:12.891Z,14.05
2024-05-09T17:30:42.889Z,13.74
2024-05-09T17:33:12.884Z,14.07
2024-05-09T17:35:41.771Z,14.09
2024-05-09T17:38:10.244Z,14.24
2024-05-09T17:40:39.302Z,14.37
2024-05-09T17:43:10.368Z,14.51
2024-05-09T17:45:41.197Z,14.59
2024-05-09T17:48:12.322Z,14.53
2024-05-09T17:50:42.191Z,14.45
2024-05-09T17:53:11.578Z,14.54
2024-05-09T17:55:40.779Z,14.49
2024-05-09T17:58:09.942Z,14.40
2024-05-09T18:00:41.365Z,14.42
2024-05-09T18:03:12.614Z,14.50
2024-05-09T18:05:43.447Z,14.52
2024-05-09T18:08:13.621Z,14.63
2024-05-09T18:10:42.838Z,14.69
2024-05-09T18:13:12.583Z,14.71
2024-05-09T18:15:41.569Z,14.69
2024-05-09T18:18:11.084Z,14.29
2024-05-09T18:20:44.185Z,13.97
2024-05-09T18:23:17.364Z,14.00
2024-05-09T18:25:47.261Z,14.00
2024-05-09T18:28:17.476Z,13.93
2024-05-09T18:30:46.823Z,13.94
2024-05-09T18:33:15.403Z,13.88
2024-05-09T18:35:45.115Z,13.93
2024-05-09T18:38:13.936Z,13.86
2024-05-09T18:40:44.032Z,13.87
2024-05-09T18:43:14.646Z,13.65
2024-05-09T18:45:43.438Z,13.92
2024-05-09T18:48:12.704Z,13.94
2024-05-09T18:50:41.903Z,13.91
2024-05-09T18:53:13.098Z,14.04
2024-05-09T18:55:45.135Z,14.16
2024-05-09T18:58:13.633Z,14.08
2024-05-09T19:00:45.293Z,14.02
2024-05-09T19:03:16.009Z,14.06
2024-05-09T19:05:46.198Z,14.10
2024-05-09T19:08:15.947Z,14.29
2024-05-09T19:10:46.243Z,14.28
2024-05-09T19:13:15.293Z,14.39
2024-05-09T19:15:44.720Z,14.37
2024-05-09T19:18:17.482Z,14.44
2024-05-09T19:20:45.952Z,14.40
2024-05-09T19:23:14.264Z,14.52
2024-05-09T19:25:42.413Z,14.48
2024-05-09T19:28:10.794Z,14.35
2024-05-09T19:30:42.149Z,14.00
2024-05-09T19:33:13.571Z,14.16
2024-05-09T19:35:43.365Z,13.89
2024-05-09T19:38:14.693Z,13.77
2024-05-09T19:40:43.121Z,13.30
2024-05-09T19:43:11.926Z,13.42
2024-05-09T19:45:40.482Z,13.45
2024-05-09T19:48:09.247Z,13.37
2024-05-09T19:50:42.662Z,13.28
2024-05-09T19:53:18.915Z,13.21
2024-05-09T19:55:47.074Z,13.25
2024-05-09T19:58:16.089Z,13.15
2024-05-09T20:00:44.987Z,13.15
2024-05-09T20:03:16.461Z,13.16
2024-05-09T20:05:47.988Z,13.21
2024-05-09T20:08:17.152Z,13.20
2024-05-09T20:10:45.554Z,13.23
2024-05-09T20:13:15.114Z,13.49
2024-05-09T20:15:43.575Z,13.53
2024-05-09T20:18:12.425Z,13.71
2024-05-09T20:20:43.059Z,13.41
2024-05-09T20:23:13.910Z,13.67
2024-05-09T20:25:42.940Z,13.62
2024-05-09T20:28:11.409Z,13.67
2024-05-09T20:30:39.759Z,13.83
2024-05-09T20:33:09.466Z,13.81
2024-05-09T20:35:38.445Z,13.87
2024-05-09T20:38:06.284Z,13.90
2024-05-09T20:40:37.871Z,13.88
2024-05-09T20:43:12.253Z,13.89
2024-05-09T20:45:40.893Z,13.73
2024-05-09T20:48:10.095Z,13.86
2024-05-09T20:50:41.539Z,13.82
2024-05-09T20:53:13.417Z,13.71
2024-05-09T20:55:44.413Z,13.78
2024-05-09T20:58:13.706Z,13.55
2024-05-09T21:00:45.348Z,13.66
2024-05-09T21:03:17.329Z,13.63
2024-05-09T21:05:47.255Z,13.52
2024-05-09T21:08:16.250Z,13.53
2024-05-09T21:10:44.818Z,13.50
2024-05-09T21:13:13.762Z,13.49
2024-05-09T21:15:42.071Z,13.21
2024-05-09T21:18:10.492Z,13.48
2024-05-09T21:20:38.818Z,13.48
2024-05-09T21:23:07.045Z,13.23
2024-05-09T21:25:35.525Z,13.19
2024-05-09T21:28:04.041Z,12.99
2024-05-09T21:30:41.048Z,12.58
2024-05-09T21:33:13.987Z,12.78
2024-05-09T21:35:44.699Z,12.71
2024-05-09T21:38:14.952Z,12.69
2024-05-09T21:40:43.945Z,12.62
2024-05-09T21:43:12.279Z,12.57
2024-05-09T21:45:40.767Z,12.60
2024-05-09T21:48:09.469Z,12.58
2024-05-09T21:50:41.130Z,12.20
2024-05-09T21:53:15.381Z,12.45
2024-05-09T21:55:43.694Z,12.44
2024-05-09T21:58:15.314Z,12.52
2024-05-09T22:00:46.065Z,12.62
2024-05-09T22:03:15.047Z,12.55
2024-05-09T22:05:45.164Z,12.43
2024-05-09T22:08:14.136Z,12.31
2024-05-09T22:10:42.957Z,12.22
2024-05-09T22:13:11.423Z,12.06
2024-05-09T22:15:41.024Z,12.05
2024-05-09T22:18:10.821Z,11.95
2024-05-09T22:20:46.893Z,11.94
2024-05-09T22:23:16.234Z,12.11
2024-05-09T22:25:45.031Z,12.07
2024-05-09T22:28:16.006Z,12.25
2024-05-09T22:30:46.579Z,12.27
2024-05-09T22:33:15.824Z,12.29
2024-05-09T22:35:44.633Z,12.27
2024-05-09T22:38:12.991Z,12.26
2024-05-09T22:40:47.498Z,12.23
2024-05-09T22:43:23.408Z,12.26
2024-05-09T22:45:55.119Z,12.23
2024-05-09T22:48:24.890Z,12.13
2024-05-09T22:50:54.119Z,12.19
2024-05-09T22:53:26.637Z,12.17
2024-05-09T22:55:55.492Z,12.14
2024-05-09T22:58:24.409Z,12.12
2024-05-09T23:00:53.064Z,12.10
2024-05-09T23:03:22.986Z,12.06
2024-05-09T23:05:51.462Z,11.77
2024-05-09T23:08:19.782Z,12.08
2024-05-09T23:10:48.264Z,11.99
2024-05-09T23:13:16.827Z,12.03
2024-05-09T23:15:45.124Z,11.95
2024-05-09T23:18:13.362Z,12.00
2024-05-09T23:20:41.646Z,11.99
2024-05-09T23:23:11.797Z,12.02
2024-05-09T23:25:42.065Z,11.99
2024-05-09T23:28:11.618Z,12.05
2024-05-09T23:30:41.312Z,12.03
2024-05-09T23:33:13.060Z,12.01
2024-05-09T23:35:44.332Z,12.04
2024-05-09T23:38:13.933Z,12.02
2024-05-09T23:40:43.338Z,12.08
2024-05-09T23:43:13.133Z,12.06
2024-05-09T23:45:42.524Z,12.07
2024-05-09T23:48:11.940Z,12.07
2024-05-09T23:50:40.950Z,12.02
2024-05-09T23:53:10.777Z,11.99
2024-05-09T23:55:39.923Z,11.98
2024-05-09T23:58:08.574Z,11.95
